sensor_id;sensor_type;location;lat;lon;timestamp;P1;durP1;ratioP1;P2;durP2;ratioP2
42742;SDS011;28397;44.552;-0.848;2023-05-16T00:02:06;11.50;;;4.32;;
42742;SDS011;28397;44.552;-0.848;2023-05-16T00:04:32;12.10;;;5.13;;
42742;SDS011;28397;44.552;-0.848;2023-05-16T00:06:58;11.55;;;4.43;;
42742;SDS011;28397;44.552;-0.848;2023-05-16T00:09:24;12.77;;;4.45;;
42742;SDS011;28397;44.552;-0.848;2023-05-16T00:11:49;11.05;;;4.60;;
42742;SDS011;28397;44.552;-0.848;2023-05-16T00:14:15;14.73;;;5.22;;
42742;SDS011;28397;44.552;-0.848;2023-05-16T00:16:41;12.90;;;4.80;;
42742;SDS011;28397;44.552;-0.848;2023-05-16T00:19:06;14.43;;;5.15;;
42742;SDS011;28397;44.552;-0.848;2023-05-16T00:21:32;8.93;;;4.45;;
42742;SDS011;28397;44.552;-0.848;2023-05-16T00:23:58;12.15;;;4.80;;
42742;SDS011;28397;44.552;-0.848;2023-05-16T00:26:24;12.32;;;5.18;;
42742;SDS011;28397;44.552;-0.848;2023-05-16T00:28:50;10.40;;;4.55;;
42742;SDS011;28397;44.552;-0.848;2023-05-16T00:31:16;12.45;;;5.38;;
42742;SDS011;28397;44.552;-0.848;2023-05-16T00:33:42;10.70;;;4.88;;
42742;SDS011;28397;44.552;-0.848;2023-05-16T00:36:07;11.70;;;4.55;;
42742;SDS011;28397;44.552;-0.848;2023-05-16T00:38:33;12.90;;;4.90;;
42742;SDS011;28397;44.552;-0.848;2023-05-16T00:40:59;10.50;;;4.90;;
42742;SDS011;28397;44.552;-0.848;2023-05-16T00:43:25;9.65;;;4.20;;
42742;SDS011;28397;44.552;-0.848;2023-05-16T00:45:50;9.75;;;4.70;;
42742;SDS011;28397;44.552;-0.848;2023-05-16T00:48:16;10.88;;;4.45;;
42742;SDS011;28397;44.552;-0.848;2023-05-16T00:50:42;10.65;;;4.78;;
42742;SDS011;28397;44.552;-0.848;2023-05-16T00:53:08;8.82;;;4.80;;
42742;SDS011;28397;44.552;-0.848;2023-05-16T00:55:35;9.23;;;4.80;;
42742;SDS011;28397;44.552;-0.848;2023-05-16T00:58:01;10.70;;;4.90;;
42742;SDS011;28397;44.552;-0.848;2023-05-16T01:00:28;11.50;;;4.90;;
42742;SDS011;28397;44.552;-0.848;2023-05-16T01:02:54;9.48;;;4.40;;
42742;SDS011;28397;44.552;-0.848;2023-05-16T01:05:20;9.35;;;4.35;;
42742;SDS011;28397;44.552;-0.848;2023-05-16T01:07:46;8.48;;;4.97;;
42742;SDS011;28397;44.552;-0.848;2023-05-16T01:10:12;7.70;;;4.60;;
42742;SDS011;28397;44.552;-0.848;2023-05-16T01:13:23;6.95;;;4.70;;
42742;SDS011;28397;44.552;-0.848;2023-05-16T01:15:46;6.80;;;4.70;;
42742;SDS011;28397;44.552;-0.848;2023-05-16T01:18:32;7.07;;;4.53;;
42742;SDS011;28397;44.552;-0.848;2023-05-16T01:21:11;7.77;;;4.43;;
42742;SDS011;28397;44.552;-0.848;2023-05-16T01:23:51;6.88;;;4.70;;
42742;SDS011;28397;44.552;-0.848;2023-05-16T01:26:25;5.95;;;4.60;;
42742;SDS011;28397;44.552;-0.848;2023-05-16T01:28:52;7.10;;;4.63;;
42742;SDS011;28397;44.552;-0.848;2023-05-16T01:31:19;5.90;;;4.70;;
42742;SDS011;28397;44.552;-0.848;2023-05-16T01:33:46;8.90;;;4.90;;
42742;SDS011;28397;44.552;-0.848;2023-05-16T01:36:17;8.55;;;4.68;;
42742;SDS011;28397;44.552;-0.848;2023-05-16T01:41:23;7.70;;;4.10;;
42742;SDS011;28397;44.552;-0.848;2023-05-16T01:43:58;6.00;;;4.50;;
42742;SDS011;28397;44.552;-0.848;2023-05-16T01:46:30;5.85;;;4.60;;
42742;SDS011;28397;44.552;-0.848;2023-05-16T01:51:59;5.95;;;4.70;;
42742;SDS011;28397;44.552;-0.848;2023-05-16T01:54:30;5.65;;;4.72;;
42742;SDS011;28397;44.552;-0.848;2023-05-16T01:56:57;4.70;;;4.30;;
42742;SDS011;28397;44.552;-0.848;2023-05-16T01:59:25;5.10;;;4.60;;
42742;SDS011;28397;44.552;-0.848;2023-05-16T02:01:52;6.10;;;5.07;;
42742;SDS011;28397;44.552;-0.848;2023-05-16T02:04:19;6.20;;;4.60;;
42742;SDS011;28397;44.552;-0.848;2023-05-16T02:06:45;5.20;;;4.25;;
42742;SDS011;28397;44.552;-0.848;2023-05-16T02:09:10;6.05;;;4.65;;
42742;SDS011;28397;44.552;-0.848;2023-05-16T02:11:36;5.07;;;4.35;;
42742;SDS011;28397;44.552;-0.848;2023-05-16T02:14:02;5.93;;;4.80;;
42742;SDS011;28397;44.552;-0.848;2023-05-16T02:16:28;5.43;;;4.85;;
42742;SDS011;28397;44.552;-0.848;2023-05-16T02:18:55;4.93;;;4.53;;
42742;SDS011;28397;44.552;-0.848;2023-05-16T02:21:21;5.95;;;5.00;;
42742;SDS011;28397;44.552;-0.848;2023-05-16T02:23:46;5.75;;;4.65;;
42742;SDS011;28397;44.552;-0.848;2023-05-16T02:26:12;6.93;;;4.82;;
42742;SDS011;28397;44.552;-0.848;2023-05-16T02:28:38;5.30;;;4.80;;
42742;SDS011;28397;44.552;-0.848;2023-05-16T02:31:04;7.30;;;5.10;;
42742;SDS011;28397;44.552;-0.848;2023-05-16T02:33:29;7.75;;;4.70;;
42742;SDS011;28397;44.552;-0.848;2023-05-16T02:35:55;7.53;;;5.00;;
42742;SDS011;28397;44.552;-0.848;2023-05-16T02:38:21;6.30;;;5.07;;
42742;SDS011;28397;44.552;-0.848;2023-05-16T02:40:47;8.73;;;5.20;;
42742;SDS011;28397;44.552;-0.848;2023-05-16T02:43:12;5.63;;;4.90;;
42742;SDS011;28397;44.552;-0.848;2023-05-16T02:45:38;5.00;;;4.50;;
42742;SDS011;28397;44.552;-0.848;2023-05-16T02:48:04;7.88;;;5.05;;
42742;SDS011;28397;44.552;-0.848;2023-05-16T02:50:30;7.38;;;5.00;;
42742;SDS011;28397;44.552;-0.848;2023-05-16T02:52:56;7.20;;;5.18;;
42742;SDS011;28397;44.552;-0.848;2023-05-16T02:55:24;7.25;;;5.30;;
42742;SDS011;28397;44.552;-0.848;2023-05-16T02:57:50;8.38;;;4.78;;
42742;SDS011;28397;44.552;-0.848;2023-05-16T03:00:16;5.82;;;4.90;;
42742;SDS011;28397;44.552;-0.848;2023-05-16T03:02:42;5.50;;;4.93;;
42742;SDS011;28397;44.552;-0.848;2023-05-16T03:05:09;5.65;;;4.63;;
42742;SDS011;28397;44.552;-0.848;2023-05-16T03:07:36;6.47;;;4.90;;
42742;SDS011;28397;44.552;-0.848;2023-05-16T03:10:02;5.60;;;4.90;;
42742;SDS011;28397;44.552;-0.848;2023-05-16T03:12:28;7.00;;;4.78;;
42742;SDS011;28397;44.552;-0.848;2023-05-16T03:14:54;7.20;;;5.00;;
42742;SDS011;28397;44.552;-0.848;2023-05-16T03:17:20;7.15;;;4.82;;
42742;SDS011;28397;44.552;-0.848;2023-05-16T03:19:46;7.63;;;4.88;;
42742;SDS011;28397;44.552;-0.848;2023-05-16T03:22:11;6.18;;;4.55;;
42742;SDS011;28397;44.552;-0.848;2023-05-16T03:24:37;6.75;;;4.53;;
42742;SDS011;28397;44.552;-0.848;2023-05-16T03:27:03;5.03;;;4.35;;
42742;SDS011;28397;44.552;-0.848;2023-05-16T03:29:29;7.22;;;4.35;;
42742;SDS011;28397;44.552;-0.848;2023-05-16T03:31:55;7.95;;;4.30;;
42742;SDS011;28397;44.552;-0.848;2023-05-16T03:34:21;8.48;;;4.50;;
42742;SDS011;28397;44.552;-0.848;2023-05-16T03:36:47;6.05;;;4.40;;
42742;SDS011;28397;44.552;-0.848;2023-05-16T03:39:14;6.05;;;4.80;;
42742;SDS011;28397;44.552;-0.848;2023-05-16T03:41:41;7.88;;;4.20;;
42742;SDS011;28397;44.552;-0.848;2023-05-16T03:44:07;7.22;;;4.50;;
42742;SDS011;28397;44.552;-0.848;2023-05-16T03:46:33;5.63;;;4.10;;
42742;SDS011;28397;44.552;-0.848;2023-05-16T03:48:59;7.43;;;4.45;;
42742;SDS011;28397;44.552;-0.848;2023-05-16T03:51:26;4.43;;;3.75;;
42742;SDS011;28397;44.552;-0.848;2023-05-16T03:53:52;5.70;;;3.90;;
42742;SDS011;28397;44.552;-0.848;2023-05-16T03:56:18;5.20;;;3.90;;
42742;SDS011;28397;44.552;-0.848;2023-05-16T03:58:44;6.22;;;4.43;;
42742;SDS011;28397;44.552;-0.848;2023-05-16T04:01:09;4.95;;;3.80;;
42742;SDS011;28397;44.552;-0.848;2023-05-16T04:03:35;7.50;;;3.70;;
42742;SDS011;28397;44.552;-0.848;2023-05-16T04:06:02;6.32;;;3.58;;
42742;SDS011;28397;44.552;-0.848;2023-05-16T04:08:28;6.07;;;3.97;;
42742;SDS011;28397;44.552;-0.848;2023-05-16T04:10:54;8.30;;;4.10;;
42742;SDS011;28397;44.552;-0.848;2023-05-16T04:13:19;6.97;;;3.65;;
42742;SDS011;28397;44.552;-0.848;2023-05-16T04:15:45;8.40;;;3.63;;
42742;SDS011;28397;44.552;-0.848;2023-05-16T04:18:11;5.70;;;3.50;;
42742;SDS011;28397;44.552;-0.848;2023-05-16T04:20:37;6.95;;;3.45;;
42742;SDS011;28397;44.552;-0.848;2023-05-16T04:23:03;5.28;;;3.30;;
42742;SDS011;28397;44.552;-0.848;2023-05-16T04:25:29;5.15;;;3.30;;
42742;SDS011;28397;44.552;-0.848;2023-05-16T04:27:55;6.55;;;3.28;;
42742;SDS011;28397;44.552;-0.848;2023-05-16T04:30:21;5.65;;;3.15;;
42742;SDS011;28397;44.552;-0.848;2023-05-16T04:32:47;6.03;;;2.90;;
42742;SDS011;28397;44.552;-0.848;2023-05-16T04:35:12;5.82;;;2.80;;
42742;SDS011;28397;44.552;-0.848;2023-05-16T04:37:38;7.35;;;2.90;;
42742;SDS011;28397;44.552;-0.848;2023-05-16T04:40:04;5.72;;;3.10;;
42742;SDS011;28397;44.552;-0.848;2023-05-16T04:42:31;6.80;;;3.10;;
42742;SDS011;28397;44.552;-0.848;2023-05-16T04:44:57;6.10;;;3.03;;
42742;SDS011;28397;44.552;-0.848;2023-05-16T04:47:23;6.28;;;3.05;;
42742;SDS011;28397;44.552;-0.848;2023-05-16T04:49:48;5.43;;;3.00;;
42742;SDS011;28397;44.552;-0.848;2023-05-16T04:52:14;7.85;;;3.15;;
42742;SDS011;28397;44.552;-0.848;2023-05-16T04:54:40;6.88;;;2.83;;
42742;SDS011;28397;44.552;-0.848;2023-05-16T04:57:06;6.43;;;3.28;;
42742;SDS011;28397;44.552;-0.848;2023-05-16T04:59:32;5.88;;;2.90;;
42742;SDS011;28397;44.552;-0.848;2023-05-16T05:01:57;5.88;;;2.90;;
42742;SDS011;28397;44.552;-0.848;2023-05-16T05:04:23;8.07;;;3.20;;
42742;SDS011;28397;44.552;-0.848;2023-05-16T05:06:49;7.13;;;2.97;;
42742;SDS011;28397;44.552;-0.848;2023-05-16T05:09:14;6.88;;;2.70;;
42742;SDS011;28397;44.552;-0.848;2023-05-16T05:11:41;7.53;;;2.80;;
42742;SDS011;28397;44.552;-0.848;2023-05-16T05:14:06;8.30;;;3.20;;
42742;SDS011;28397;44.552;-0.848;2023-05-16T05:16:32;5.55;;;2.58;;
42742;SDS011;28397;44.552;-0.848;2023-05-16T05:18:58;5.68;;;2.63;;
42742;SDS011;28397;44.552;-0.848;2023-05-16T05:21:24;5.70;;;2.92;;
42742;SDS011;28397;44.552;-0.848;2023-05-16T05:23:50;10.07;;;2.60;;
42742;SDS011;28397;44.552;-0.848;2023-05-16T05:26:16;7.30;;;2.90;;
42742;SDS011;28397;44.552;-0.848;2023-05-16T05:28:42;9.95;;;2.72;;
42742;SDS011;28397;44.552;-0.848;2023-05-16T05:31:08;8.65;;;2.70;;
42742;SDS011;28397;44.552;-0.848;2023-05-16T05:33:33;5.97;;;2.63;;
42742;SDS011;28397;44.552;-0.848;2023-05-16T05:35:59;7.47;;;2.50;;
42742;SDS011;28397;44.552;-0.848;2023-05-16T05:38:25;6.40;;;2.80;;
42742;SDS011;28397;44.552;-0.848;2023-05-16T05:40:51;9.23;;;2.63;;
42742;SDS011;28397;44.552;-0.848;2023-05-16T05:43:17;4.68;;;2.55;;
42742;SDS011;28397;44.552;-0.848;2023-05-16T05:45:42;7.40;;;2.78;;
42742;SDS011;28397;44.552;-0.848;2023-05-16T05:48:08;9.15;;;3.13;;
42742;SDS011;28397;44.552;-0.848;2023-05-16T05:50:35;9.07;;;3.45;;
42742;SDS011;28397;44.552;-0.848;2023-05-16T05:53:01;8.00;;;2.90;;
42742;SDS011;28397;44.552;-0.848;2023-05-16T05:55:27;7.22;;;3.00;;
42742;SDS011;28397;44.552;-0.848;2023-05-16T05:57:53;5.97;;;3.33;;
42742;SDS011;28397;44.552;-0.848;2023-05-16T06:00:19;6.97;;;2.90;;
42742;SDS011;28397;44.552;-0.848;2023-05-16T06:02:46;7.15;;;2.90;;
42742;SDS011;28397;44.552;-0.848;2023-05-16T06:05:12;9.70;;;3.15;;
42742;SDS011;28397;44.552;-0.848;2023-05-16T06:07:38;7.82;;;3.25;;
42742;SDS011;28397;44.552;-0.848;2023-05-16T06:10:04;7.93;;;3.20;;
42742;SDS011;28397;44.552;-0.848;2023-05-16T06:12:32;11.63;;;3.40;;
42742;SDS011;28397;44.552;-0.848;2023-05-16T06:14:58;9.93;;;3.63;;
42742;SDS011;28397;44.552;-0.848;2023-05-16T06:17:24;10.75;;;3.45;;
42742;SDS011;28397;44.552;-0.848;2023-05-16T06:19:49;8.93;;;3.97;;
42742;SDS011;28397;44.552;-0.848;2023-05-16T06:22:15;7.97;;;3.85;;
42742;SDS011;28397;44.552;-0.848;2023-05-16T06:24:41;8.48;;;3.70;;
42742;SDS011;28397;44.552;-0.848;2023-05-16T06:27:07;8.48;;;3.55;;
42742;SDS011;28397;44.552;-0.848;2023-05-16T06:29:33;9.43;;;4.20;;
42742;SDS011;28397;44.552;-0.848;2023-05-16T06:31:58;9.38;;;4.20;;
42742;SDS011;28397;44.552;-0.848;2023-05-16T06:34:24;8.20;;;3.65;;
42742;SDS011;28397;44.552;-0.848;2023-05-16T06:36:52;8.05;;;4.32;;
42742;SDS011;28397;44.552;-0.848;2023-05-16T06:39:18;10.80;;;4.03;;
42742;SDS011;28397;44.552;-0.848;2023-05-16T06:41:44;9.07;;;4.15;;
42742;SDS011;28397;44.552;-0.848;2023-05-16T06:44:10;8.70;;;3.65;;
42742;SDS011;28397;44.552;-0.848;2023-05-16T06:46:36;8.75;;;3.92;;
42742;SDS011;28397;44.552;-0.848;2023-05-16T06:49:02;8.35;;;4.28;;
42742;SDS011;28397;44.552;-0.848;2023-05-16T06:51:28;12.48;;;4.40;;
42742;SDS011;28397;44.552;-0.848;2023-05-16T06:53:55;9.80;;;3.97;;
42742;SDS011;28397;44.552;-0.848;2023-05-16T06:56:21;10.52;;;4.00;;
42742;SDS011;28397;44.552;-0.848;2023-05-16T06:58:47;9.85;;;3.97;;
42742;SDS011;28397;44.552;-0.848;2023-05-16T07:01:13;7.00;;;3.65;;
42742;SDS011;28397;44.552;-0.848;2023-05-16T07:03:39;12.63;;;4.00;;
42742;SDS011;28397;44.552;-0.848;2023-05-16T07:06:05;10.95;;;4.20;;
42742;SDS011;28397;44.552;-0.848;2023-05-16T07:08:31;9.73;;;3.75;;
42742;SDS011;28397;44.552;-0.848;2023-05-16T07:10:57;8.30;;;3.60;;
42742;SDS011;28397;44.552;-0.848;2023-05-16T07:13:22;7.55;;;3.58;;
42742;SDS011;28397;44.552;-0.848;2023-05-16T07:15:48;9.75;;;3.60;;
42742;SDS011;28397;44.552;-0.848;2023-05-16T07:18:14;7.63;;;3.72;;
42742;SDS011;28397;44.552;-0.848;2023-05-16T07:20:39;8.68;;;3.70;;
42742;SDS011;28397;44.552;-0.848;2023-05-16T07:23:05;8.77;;;3.63;;
42742;SDS011;28397;44.552;-0.848;2023-05-16T07:25:31;8.80;;;3.65;;
42742;SDS011;28397;44.552;-0.848;2023-05-16T07:27:57;7.55;;;3.45;;
42742;SDS011;28397;44.552;-0.848;2023-05-16T07:30:23;12.20;;;3.90;;
42742;SDS011;28397;44.552;-0.848;2023-05-16T07:32:48;9.18;;;3.42;;
42742;SDS011;28397;44.552;-0.848;2023-05-16T07:35:14;11.15;;;3.40;;
42742;SDS011;28397;44.552;-0.848;2023-05-16T07:37:40;7.03;;;3.40;;
42742;SDS011;28397;44.552;-0.848;2023-05-16T07:40:07;7.22;;;3.40;;
42742;SDS011;28397;44.552;-0.848;2023-05-16T07:42:34;7.80;;;3.50;;
42742;SDS011;28397;44.552;-0.848;2023-05-16T07:45:00;7.78;;;3.30;;
42742;SDS011;28397;44.552;-0.848;2023-05-16T07:47:26;8.85;;;3.55;;
42742;SDS011;28397;44.552;-0.848;2023-05-16T07:49:52;8.75;;;3.40;;
42742;SDS011;28397;44.552;-0.848;2023-05-16T07:52:18;8.93;;;3.60;;
42742;SDS011;28397;44.552;-0.848;2023-05-16T07:54:45;10.68;;;3.58;;
42742;SDS011;28397;44.552;-0.848;2023-05-16T07:57:12;6.43;;;3.25;;
42742;SDS011;28397;44.552;-0.848;2023-05-16T07:59:42;7.32;;;3.00;;
42742;SDS011;28397;44.552;-0.848;2023-05-16T08:02:09;8.18;;;3.40;;
42742;SDS011;28397;44.552;-0.848;2023-05-16T08:04:35;7.35;;;3.20;;
42742;SDS011;28397;44.552;-0.848;2023-05-16T08:07:01;9.23;;;3.58;;
42742;SDS011;28397;44.552;-0.848;2023-05-16T08:09:27;7.20;;;3.60;;
42742;SDS011;28397;44.552;-0.848;2023-05-16T08:11:53;7.55;;;3.55;;
42742;SDS011;28397;44.552;-0.848;2023-05-16T08:14:18;9.95;;;3.55;;
42742;SDS011;28397;44.552;-0.848;2023-05-16T08:16:45;9.52;;;3.30;;
42742;SDS011;28397;44.552;-0.848;2023-05-16T08:19:11;9.68;;;3.22;;
42742;SDS011;28397;44.552;-0.848;2023-05-16T08:21:37;153.45;;;14.25;;
42742;SDS011;28397;44.552;-0.848;2023-05-16T08:24:02;14.20;;;3.63;;
42742;SDS011;28397;44.552;-0.848;2023-05-16T08:26:29;10.45;;;3.20;;
42742;SDS011;28397;44.552;-0.848;2023-05-16T08:28:56;8.63;;;3.28;;
42742;SDS011;28397;44.552;-0.848;2023-05-16T08:31:21;9.80;;;2.83;;
42742;SDS011;28397;44.552;-0.848;2023-05-16T08:33:47;8.27;;;3.45;;
42742;SDS011;28397;44.552;-0.848;2023-05-16T08:36:13;8.02;;;3.05;;
42742;SDS011;28397;44.552;-0.848;2023-05-16T08:38:40;5.30;;;2.67;;
42742;SDS011;28397;44.552;-0.848;2023-05-16T08:41:05;6.43;;;2.53;;
42742;SDS011;28397;44.552;-0.848;2023-05-16T08:43:31;5.00;;;2.50;;
42742;SDS011;28397;44.552;-0.848;2023-05-16T08:45:59;7.22;;;2.20;;
42742;SDS011;28397;44.552;-0.848;2023-05-16T08:48:24;8.13;;;2.67;;
42742;SDS011;28397;44.552;-0.848;2023-05-16T08:50:52;7.55;;;2.60;;
42742;SDS011;28397;44.552;-0.848;2023-05-16T08:53:21;6.35;;;2.60;;
42742;SDS011;28397;44.552;-0.848;2023-05-16T08:55:55;7.50;;;2.45;;
42742;SDS011;28397;44.552;-0.848;2023-05-16T08:58:21;7.57;;;2.22;;
42742;SDS011;28397;44.552;-0.848;2023-05-16T09:00:47;5.22;;;2.20;;
42742;SDS011;28397;44.552;-0.848;2023-05-16T09:03:13;6.07;;;2.10;;
42742;SDS011;28397;44.552;-0.848;2023-05-16T09:05:39;5.63;;;2.47;;
42742;SDS011;28397;44.552;-0.848;2023-05-16T09:08:05;5.25;;;1.90;;
42742;SDS011;28397;44.552;-0.848;2023-05-16T09:10:31;4.72;;;1.98;;
42742;SDS011;28397;44.552;-0.848;2023-05-16T09:12:56;6.35;;;2.15;;
42742;SDS011;28397;44.552;-0.848;2023-05-16T09:15:22;4.45;;;1.70;;
42742;SDS011;28397;44.552;-0.848;2023-05-16T09:17:55;4.68;;;2.13;;
42742;SDS011;28397;44.552;-0.848;2023-05-16T09:20:24;3.65;;;1.73;;
42742;SDS011;28397;44.552;-0.848;2023-05-16T09:22:51;5.15;;;1.83;;
42742;SDS011;28397;44.552;-0.848;2023-05-16T09:25:27;3.80;;;1.60;;
42742;SDS011;28397;44.552;-0.848;2023-05-16T09:27:54;3.55;;;1.70;;
42742;SDS011;28397;44.552;-0.848;2023-05-16T09:30:21;6.43;;;1.80;;
42742;SDS011;28397;44.552;-0.848;2023-05-16T09:32:51;6.15;;;2.30;;
42742;SDS011;28397;44.552;-0.848;2023-05-16T09:35:18;4.32;;;1.80;;
42742;SDS011;28397;44.552;-0.848;2023-05-16T09:37:45;4.22;;;1.73;;
42742;SDS011;28397;44.552;-0.848;2023-05-16T09:40:12;6.57;;;2.00;;
42742;SDS011;28397;44.552;-0.848;2023-05-16T09:42:38;4.13;;;1.88;;
42742;SDS011;28397;44.552;-0.848;2023-05-16T09:45:04;4.88;;;1.85;;
42742;SDS011;28397;44.552;-0.848;2023-05-16T09:47:30;5.75;;;1.77;;
42742;SDS011;28397;44.552;-0.848;2023-05-16T09:49:56;3.42;;;1.80;;
42742;SDS011;28397;44.552;-0.848;2023-05-16T09:52:25;4.10;;;1.85;;
42742;SDS011;28397;44.552;-0.848;2023-05-16T09:54:51;4.32;;;1.75;;
42742;SDS011;28397;44.552;-0.848;2023-05-16T09:57:19;3.75;;;1.67;;
42742;SDS011;28397;44.552;-0.848;2023-05-16T09:59:51;11.32;;;2.03;;
42742;SDS011;28397;44.552;-0.848;2023-05-16T10:02:16;3.78;;;1.75;;
42742;SDS011;28397;44.552;-0.848;2023-05-16T10:04:44;4.65;;;1.77;;
42742;SDS011;28397;44.552;-0.848;2023-05-16T10:07:09;4.38;;;1.83;;
42742;SDS011;28397;44.552;-0.848;2023-05-16T10:09:37;4.78;;;2.22;;
42742;SDS011;28397;44.552;-0.848;2023-05-16T10:12:05;6.68;;;2.53;;
42742;SDS011;28397;44.552;-0.848;2023-05-16T10:14:33;4.75;;;2.10;;
42742;SDS011;28397;44.552;-0.848;2023-05-16T10:17:01;4.22;;;1.70;;
42742;SDS011;28397;44.552;-0.848;2023-05-16T10:19:30;4.70;;;2.05;;
42742;SDS011;28397;44.552;-0.848;2023-05-16T10:21:57;6.20;;;2.42;;
42742;SDS011;28397;44.552;-0.848;2023-05-16T10:24:27;5.05;;;1.80;;
42742;SDS011;28397;44.552;-0.848;2023-05-16T10:26:57;2.97;;;1.83;;
42742;SDS011;28397;44.552;-0.848;2023-05-16T10:29:23;2.55;;;1.70;;
42742;SDS011;28397;44.552;-0.848;2023-05-16T10:31:50;3.75;;;1.58;;
42742;SDS011;28397;44.552;-0.848;2023-05-16T10:34:15;6.15;;;1.70;;
42742;SDS011;28397;44.552;-0.848;2023-05-16T10:36:42;2.65;;;1.42;;
42742;SDS011;28397;44.552;-0.848;2023-05-16T10:39:10;3.35;;;1.67;;
42742;SDS011;28397;44.552;-0.848;2023-05-16T10:41:37;3.42;;;1.55;;
42742;SDS011;28397;44.552;-0.848;2023-05-16T10:44:03;3.15;;;1.52;;
42742;SDS011;28397;44.552;-0.848;2023-05-16T10:46:36;3.33;;;1.50;;
42742;SDS011;28397;44.552;-0.848;2023-05-16T10:49:18;2.53;;;1.50;;
42742;SDS011;28397;44.552;-0.848;2023-05-16T10:51:43;3.45;;;1.42;;
42742;SDS011;28397;44.552;-0.848;2023-05-16T10:54:10;3.33;;;1.48;;
42742;SDS011;28397;44.552;-0.848;2023-05-16T10:56:39;4.30;;;1.67;;
42742;SDS011;28397;44.552;-0.848;2023-05-16T10:59:20;3.75;;;1.77;;
42742;SDS011;28397;44.552;-0.848;2023-05-16T11:01:51;5.15;;;2.00;;
42742;SDS011;28397;44.552;-0.848;2023-05-16T11:04:18;2.80;;;1.77;;
42742;SDS011;28397;44.552;-0.848;2023-05-16T11:06:44;3.70;;;1.88;;
42742;SDS011;28397;44.552;-0.848;2023-05-16T11:09:23;2.60;;;1.50;;
42742;SDS011;28397;44.552;-0.848;2023-05-16T11:17:10;3.67;;;1.83;;
42742;SDS011;28397;44.552;-0.848;2023-05-16T11:19:47;5.07;;;1.80;;
42742;SDS011;28397;44.552;-0.848;2023-05-16T11:22:24;4.68;;;1.80;;
42742;SDS011;28397;44.552;-0.848;2023-05-16T11:25:00;2.60;;;1.60;;
42742;SDS011;28397;44.552;-0.848;2023-05-16T11:27:30;2.83;;;1.60;;
42742;SDS011;28397;44.552;-0.848;2023-05-16T11:32:40;3.58;;;1.55;;
42742;SDS011;28397;44.552;-0.848;2023-05-16T11:35:08;4.30;;;1.60;;
42742;SDS011;28397;44.552;-0.848;2023-05-16T11:37:36;5.80;;;1.90;;
42742;SDS011;28397;44.552;-0.848;2023-05-16T11:40:03;3.90;;;1.65;;
42742;SDS011;28397;44.552;-0.848;2023-05-16T11:42:33;4.32;;;1.60;;
42742;SDS011;28397;44.552;-0.848;2023-05-16T11:45:09;6.82;;;1.70;;
42742;SDS011;28397;44.552;-0.848;2023-05-16T11:50:18;3.25;;;1.58;;
42742;SDS011;28397;44.552;-0.848;2023-05-16T11:52:47;6.30;;;1.60;;
42742;SDS011;28397;44.552;-0.848;2023-05-16T11:55:18;4.13;;;1.80;;
42742;SDS011;28397;44.552;-0.848;2023-05-16T11:57:47;4.68;;;1.85;;
42742;SDS011;28397;44.552;-0.848;2023-05-16T12:00:16;6.05;;;1.83;;
42742;SDS011;28397;44.552;-0.848;2023-05-16T12:02:46;5.53;;;1.63;;
42742;SDS011;28397;44.552;-0.848;2023-05-16T12:05:13;4.28;;;1.67;;
42742;SDS011;28397;44.552;-0.848;2023-05-16T12:07:43;4.55;;;1.60;;
42742;SDS011;28397;44.552;-0.848;2023-05-16T12:10:11;4.18;;;1.63;;
42742;SDS011;28397;44.552;-0.848;2023-05-16T12:12:38;5.07;;;1.92;;
42742;SDS011;28397;44.552;-0.848;2023-05-16T12:15:07;3.72;;;1.98;;
42742;SDS011;28397;44.552;-0.848;2023-05-16T12:17:33;4.85;;;1.90;;
42742;SDS011;28397;44.552;-0.848;2023-05-16T12:20:00;3.38;;;1.80;;
42742;SDS011;28397;44.552;-0.848;2023-05-16T12:22:30;2.95;;;1.60;;
42742;SDS011;28397;44.552;-0.848;2023-05-16T12:24:58;2.72;;;1.58;;
42742;SDS011;28397;44.552;-0.848;2023-05-16T12:27:24;3.97;;;1.50;;
42742;SDS011;28397;44.552;-0.848;2023-05-16T12:29:51;3.30;;;1.38;;
42742;SDS011;28397;44.552;-0.848;2023-05-16T12:32:17;4.72;;;1.67;;
42742;SDS011;28397;44.552;-0.848;2023-05-16T12:34:50;4.50;;;1.55;;
42742;SDS011;28397;44.552;-0.848;2023-05-16T12:37:17;4.43;;;1.60;;
42742;SDS011;28397;44.552;-0.848;2023-05-16T12:39:43;4.63;;;1.67;;
42742;SDS011;28397;44.552;-0.848;2023-05-16T12:42:12;3.25;;;1.30;;
42742;SDS011;28397;44.552;-0.848;2023-05-16T12:44:39;4.47;;;1.85;;
42742;SDS011;28397;44.552;-0.848;2023-05-16T12:47:12;3.83;;;1.30;;
42742;SDS011;28397;44.552;-0.848;2023-05-16T12:49:44;3.38;;;1.55;;
42742;SDS011;28397;44.552;-0.848;2023-05-16T12:52:16;4.25;;;1.73;;
42742;SDS011;28397;44.552;-0.848;2023-05-16T12:54:44;3.22;;;1.60;;
42742;SDS011;28397;44.552;-0.848;2023-05-16T12:57:10;13.98;;;1.90;;
42742;SDS011;28397;44.552;-0.848;2023-05-16T12:59:35;6.25;;;1.50;;
42742;SDS011;28397;44.552;-0.848;2023-05-16T13:02:01;3.78;;;1.60;;
42742;SDS011;28397;44.552;-0.848;2023-05-16T13:04:27;6.90;;;1.80;;
42742;SDS011;28397;44.552;-0.848;2023-05-16T13:06:54;3.55;;;1.50;;
42742;SDS011;28397;44.552;-0.848;2023-05-16T13:09:19;3.58;;;1.48;;
42742;SDS011;28397;44.552;-0.848;2023-05-16T13:11:45;3.42;;;1.50;;
42742;SDS011;28397;44.552;-0.848;2023-05-16T13:14:12;4.43;;;1.50;;
42742;SDS011;28397;44.552;-0.848;2023-05-16T13:16:37;3.17;;;1.70;;
42742;SDS011;28397;44.552;-0.848;2023-05-16T13:19:03;2.90;;;1.60;;
42742;SDS011;28397;44.552;-0.848;2023-05-16T13:21:29;3.30;;;1.52;;
42742;SDS011;28397;44.552;-0.848;2023-05-16T13:23:56;3.60;;;1.40;;
42742;SDS011;28397;44.552;-0.848;2023-05-16T13:26:23;6.35;;;1.73;;
42742;SDS011;28397;44.552;-0.848;2023-05-16T13:28:48;3.85;;;1.60;;
42742;SDS011;28397;44.552;-0.848;2023-05-16T13:31:18;3.55;;;1.83;;
42742;SDS011;28397;44.552;-0.848;2023-05-16T13:33:45;5.68;;;1.90;;
42742;SDS011;28397;44.552;-0.848;2023-05-16T13:36:11;4.95;;;1.60;;
42742;SDS011;28397;44.552;-0.848;2023-05-16T13:38:37;4.07;;;1.83;;
42742;SDS011;28397;44.552;-0.848;2023-05-16T13:41:02;4.30;;;1.50;;
42742;SDS011;28397;44.552;-0.848;2023-05-16T13:43:28;3.28;;;1.63;;
42742;SDS011;28397;44.552;-0.848;2023-05-16T13:45:54;4.43;;;1.65;;
42742;SDS011;28397;44.552;-0.848;2023-05-16T13:48:21;3.97;;;1.55;;
42742;SDS011;28397;44.552;-0.848;2023-05-16T13:50:46;5.95;;;1.67;;
42742;SDS011;28397;44.552;-0.848;2023-05-16T13:53:12;3.22;;;1.70;;
42742;SDS011;28397;44.552;-0.848;2023-05-16T13:55:38;4.05;;;1.48;;
42742;SDS011;28397;44.552;-0.848;2023-05-16T13:58:04;4.32;;;1.30;;
42742;SDS011;28397;44.552;-0.848;2023-05-16T14:00:29;4.78;;;1.95;;
42742;SDS011;28397;44.552;-0.848;2023-05-16T14:02:55;5.20;;;1.70;;
42742;SDS011;28397;44.552;-0.848;2023-05-16T14:05:21;5.45;;;1.65;;
42742;SDS011;28397;44.552;-0.848;2023-05-16T14:07:47;4.90;;;1.75;;
42742;SDS011;28397;44.552;-0.848;2023-05-16T14:10:13;4.43;;;1.50;;
42742;SDS011;28397;44.552;-0.848;2023-05-16T14:12:38;4.25;;;1.60;;
42742;SDS011;28397;44.552;-0.848;2023-05-16T14:15:04;6.28;;;1.60;;
42742;SDS011;28397;44.552;-0.848;2023-05-16T14:17:31;5.95;;;1.90;;
42742;SDS011;28397;44.552;-0.848;2023-05-16T14:19:56;6.00;;;1.50;;
42742;SDS011;28397;44.552;-0.848;2023-05-16T14:22:22;5.32;;;1.65;;
42742;SDS011;28397;44.552;-0.848;2023-05-16T14:24:48;3.20;;;1.50;;
42742;SDS011;28397;44.552;-0.848;2023-05-16T14:27:14;5.63;;;1.45;;
42742;SDS011;28397;44.552;-0.848;2023-05-16T14:29:40;5.97;;;1.70;;
42742;SDS011;28397;44.552;-0.848;2023-05-16T14:32:06;3.45;;;1.40;;
42742;SDS011;28397;44.552;-0.848;2023-05-16T14:34:32;5.18;;;1.73;;
42742;SDS011;28397;44.552;-0.848;2023-05-16T14:36:58;3.40;;;1.65;;
42742;SDS011;28397;44.552;-0.848;2023-05-16T14:39:24;5.80;;;1.65;;
42742;SDS011;28397;44.552;-0.848;2023-05-16T14:41:51;4.78;;;1.70;;
42742;SDS011;28397;44.552;-0.848;2023-05-16T14:44:16;4.15;;;1.58;;
42742;SDS011;28397;44.552;-0.848;2023-05-16T14:46:44;6.07;;;1.70;;
42742;SDS011;28397;44.552;-0.848;2023-05-16T14:49:10;4.93;;;1.70;;